createdAt,value
2023-02-24T00:00:18.578Z,86943.34
2023-02-24T00:06:52.316Z,86942.47
2023-02-24T00:09:27.199Z,86939.09
2023-02-24T00:12:06.248Z,86933.16
2023-02-24T00:14:38.225Z,86925.38
2023-02-24T00:17:06.806Z,86937.75
2023-02-24T00:19:34.793Z,86927.28
2023-02-24T00:22:04.633Z,86926.53
2023-02-24T00:24:32.347Z,86927.22
2023-02-24T00:27:03.106Z,86925.78
2023-02-24T00:29:30.715Z,86921.31
2023-02-24T00:31:59.100Z,86913.81
2023-02-24T00:34:31.639Z,86917.94
2023-02-24T00:36:59.762Z,86922.88
2023-02-24T00:39:28.808Z,86927.03
2023-02-24T00:41:57.350Z,86922.56
2023-02-24T00:44:26.136Z,86928.19
2023-02-24T00:46:53.344Z,86922.94
2023-02-24T00:49:20.652Z,86929.22
2023-02-24T00:51:49.759Z,86927.28
2023-02-24T00:54:17.893Z,86926.16
2023-02-24T00:56:48.392Z,86928.34
2023-02-24T00:59:18.172Z,86927.53
2023-02-24T01:01:46.059Z,86923.78
2023-02-24T01:04:14.225Z,86924.09
2023-02-24T01:06:48.425Z,86920.44
2023-02-24T01:09:20.936Z,86915.97
2023-02-24T01:11:50.039Z,86912.56
2023-02-24T01:14:22.819Z,86917.81
2023-02-24T01:16:50.949Z,86910.34
2023-02-24T01:19:30.863Z,86908.41
2023-02-24T01:22:06.094Z,86903.19
2023-02-24T01:24:37.830Z,86897.97
2023-02-24T01:27:06.751Z,86898.34
2023-02-24T01:29:34.260Z,86893.47
2023-02-24T01:32:01.562Z,86895.97
2023-02-24T01:34:29.194Z,86901.88
2023-02-24T01:36:56.399Z,86894.34
2023-02-24T01:39:23.812Z,86897.31
2023-02-24T01:41:52.424Z,86895.84
2023-02-24T01:44:19.803Z,86895.06
2023-02-24T01:46:53.665Z,86891.22
2023-02-24T01:49:36.099Z,86879.84
2023-02-24T01:52:14.931Z,86880.97
2023-02-24T01:54:52.221Z,86881.28
2023-02-24T01:57:24.199Z,86872.00
2023-02-24T01:59:55.960Z,86875.78
2023-02-24T02:02:24.116Z,86867.19
2023-02-24T02:05:02.950Z,86870.13
2023-02-24T02:07:30.847Z,86867.06
2023-02-24T02:10:01.174Z,86865.19
2023-02-24T02:12:30.466Z,86863.34
2023-02-24T02:14:59.566Z,86858.81
2023-02-24T02:17:45.021Z,86859.91
2023-02-24T02:20:50.269Z,86862.06
2023-02-24T02:23:47.090Z,86867.59
2023-02-24T02:26:33.744Z,86857.53
2023-02-24T02:30:03.403Z,86856.38
2023-02-24T02:33:17.013Z,86859.69
2023-02-24T02:36:08.138Z,86849.16
2023-02-24T02:38:55.897Z,86851.75
2023-02-24T02:42:12.074Z,86847.25
2023-02-24T02:44:40.931Z,86852.06
2023-02-24T02:47:34.185Z,86850.16
2023-02-24T02:50:57.174Z,86856.47
2023-02-24T02:53:42.474Z,86852.69
2023-02-24T02:56:35.471Z,86850.72
2023-02-24T02:59:06.149Z,86855.53
2023-02-24T03:01:40.390Z,86858.84
2023-02-24T03:04:13.908Z,86855.13
2023-02-24T03:06:56.116Z,86856.59
2023-02-24T03:09:39.636Z,86850.16
2023-02-24T03:12:14.435Z,86846.78
2023-02-24T03:14:51.368Z,86843.06
2023-02-24T03:17:26.264Z,86839.72
2023-02-24T03:20:16.398Z,86830.09
2023-02-24T03:23:01.105Z,86836.75
2023-02-24T03:25:42.430Z,86833.75
2023-02-24T03:28:25.008Z,86835.19
2023-02-24T03:31:10.755Z,86836.97
2023-02-24T03:34:15.041Z,86832.44
2023-02-24T03:36:42.854Z,86834.25
2023-02-24T03:39:12.042Z,86832.81
2023-02-24T03:42:04.221Z,86837.22
2023-02-24T03:44:32.362Z,86834.59
2023-02-24T03:47:01.917Z,86830.53
2023-02-24T03:49:29.274Z,86831.63
2023-02-24T03:52:12.908Z,86835.63
2023-02-24T03:55:16.675Z,86828.72
2023-02-24T03:58:14.470Z,86822.75
2023-02-24T04:00:50.240Z,86821.63
2023-02-24T04:04:00.363Z,86818.28
2023-02-24T04:10:58.555Z,86815.97
2023-02-24T04:13:39.536Z,86812.59
2023-02-24T04:16:24.530Z,86810.25
2023-02-24T04:18:52.731Z,86814.03
2023-02-24T04:21:22.069Z,86810.63
2023-02-24T04:23:49.757Z,86812.69
2023-02-24T04:26:19.754Z,86804.09
2023-02-24T04:28:47.303Z,86809.59
2023-02-24T04:31:17.877Z,86809.19
2023-02-24T04:33:46.365Z,86803.97
2023-02-24T04:36:13.571Z,86802.47
2023-02-24T04:38:41.140Z,86803.66
2023-02-24T04:41:08.403Z,86798.75
2023-02-24T04:43:35.606Z,86798.09
2023-02-24T04:46:02.812Z,86787.66
2023-02-24T04:48:30.009Z,86787.94
2023-02-24T04:51:00.812Z,86792.31
2023-02-24T04:53:28.617Z,86790.13
2023-02-24T04:55:56.548Z,86790.81
2023-02-24T04:58:26.421Z,86785.69
2023-02-24T05:04:59.142Z,86777.44
2023-02-24T05:07:26.471Z,86775.94
2023-02-24T05:09:53.734Z,86779.31
2023-02-24T05:12:21.028Z,86775.66
2023-02-24T05:18:55.275Z,86773.53
2023-02-24T05:21:23.058Z,86765.47
2023-02-24T05:23:53.310Z,86759.50
2023-02-24T05:26:25.335Z,86754.28
2023-02-24T05:28:55.800Z,86758.38
2023-02-24T05:31:35.980Z,86760.56
2023-02-24T05:34:07.336Z,86759.41
2023-02-24T05:36:39.421Z,86765.38
2023-02-24T05:39:08.464Z,86762.00
2023-02-24T05:41:40.730Z,86760.13
2023-02-24T05:44:13.575Z,86747.50
2023-02-24T05:46:44.497Z,86757.16
2023-02-24T05:49:23.016Z,86753.88
2023-02-24T05:51:53.154Z,86737.53
2023-02-24T05:54:25.300Z,86744.25
2023-02-24T05:56:53.123Z,86735.78
2023-02-24T05:59:20.443Z,86740.69
2023-02-24T06:01:50.428Z,86741.78
2023-02-24T06:04:17.702Z,86731.00
2023-02-24T06:06:44.867Z,86737.88
2023-02-24T06:09:30.599Z,86729.28
2023-02-24T06:11:58.079Z,86730.25
2023-02-24T06:14:25.460Z,86737.88
2023-02-24T06:16:52.619Z,86723.03
2023-02-24T06:19:20.129Z,86729.41
2023-02-24T06:21:47.321Z,86730.47
2023-02-24T06:28:19.997Z,86731.22
2023-02-24T06:30:47.348Z,86728.25
2023-02-24T06:33:14.561Z,86732.03
2023-02-24T06:35:41.753Z,86728.72
2023-02-24T06:38:09.267Z,86736.97
2023-02-24T06:40:37.918Z,86731.38
2023-02-24T06:43:05.966Z,86731.78
2023-02-24T06:45:33.277Z,86734.44
2023-02-24T06:48:35.757Z,86729.66
2023-02-24T06:51:10.751Z,86735.59
2023-02-24T06:53:44.300Z,86734.16
2023-02-24T06:56:16.546Z,86730.88
2023-02-24T07:02:28.992Z,86725.09
2023-02-24T07:04:56.180Z,86724.03
2023-02-24T07:07:23.514Z,86727.09
2023-02-24T07:09:50.983Z,86717.06
2023-02-24T07:12:19.230Z,86722.00
2023-02-24T07:14:49.748Z,86720.91
2023-02-24T07:17:18.578Z,86723.94
2023-02-24T07:23:46.810Z,86719.91
2023-02-24T07:26:17.579Z,86721.84
2023-02-24T07:32:51.252Z,86724.75
2023-02-24T07:39:17.413Z,86723.25
2023-02-24T07:41:44.658Z,86721.09
2023-02-24T07:44:13.474Z,86721.94
2023-02-24T07:46:40.947Z,86718.66
2023-02-24T07:49:14.859Z,86722.06
2023-02-24T07:51:42.626Z,86722.16
2023-02-24T07:54:11.656Z,86716.28
2023-02-24T07:56:40.869Z,86714.84
2023-02-24T07:59:08.292Z,86714.13
2023-02-24T08:01:38.204Z,86713.88
2023-02-24T08:04:10.842Z,86718.78
2023-02-24T08:06:42.320Z,86709.94
2023-02-24T08:09:16.138Z,86713.31
2023-02-24T08:11:56.826Z,86707.84
2023-02-24T08:22:22.436Z,86699.19
2023-02-24T08:24:59.198Z,86685.88
2023-02-24T08:31:33.156Z,86689.09
2023-02-24T08:34:00.509Z,86682.91
2023-02-24T08:36:27.708Z,86684.13
2023-02-24T08:38:55.988Z,86687.25
2023-02-24T08:41:23.533Z,86682.84
2023-02-24T08:43:50.826Z,86675.81
2023-02-24T08:46:23.012Z,86677.03
2023-02-24T08:48:59.622Z,86677.16
2023-02-24T08:51:35.864Z,86667.88
2023-02-24T08:54:16.574Z,86663.13
2023-02-24T08:56:47.616Z,86665.06
2023-02-24T08:59:19.309Z,86662.88
2023-02-24T09:01:50.739Z,86658.81
2023-02-24T09:04:20.961Z,86660.34
2023-02-24T09:06:55.659Z,86672.34
2023-02-24T09:09:25.451Z,86663.38
2023-02-24T09:12:00.161Z,86663.41
2023-02-24T09:14:33.679Z,86657.81
2023-02-24T09:17:00.981Z,86655.88
2023-02-24T09:19:31.617Z,86656.97
2023-02-24T09:21:58.801Z,86654.34
2023-02-24T09:24:26.031Z,86652.84
2023-02-24T09:26:56.674Z,86654.38
2023-02-24T09:29:28.229Z,86658.13
2023-02-24T09:31:55.615Z,86658.13
2023-02-24T09:34:22.947Z,86653.66
2023-02-24T09:36:50.131Z,86653.66
2023-02-24T09:39:17.442Z,86650.25
2023-02-24T09:41:52.593Z,86646.16
2023-02-24T09:44:41.905Z,86651.03
2023-02-24T09:47:44.524Z,86638.66
2023-02-24T09:50:46.795Z,86635.72
2023-02-24T09:53:14.006Z,86625.25
2023-02-24T09:56:09.495Z,86627.88
2023-02-24T09:58:46.308Z,86624.50
2023-02-24T10:01:48.282Z,86615.16
2023-02-24T10:04:21.239Z,86616.28
2023-02-24T10:06:56.976Z,86620.00
2023-02-24T10:09:49.266Z,86614.03
2023-02-24T10:12:23.221Z,86613.28
2023-02-24T10:15:03.081Z,86615.16
2023-02-24T10:17:30.382Z,86612.19
2023-02-24T10:20:11.944Z,86611.06
2023-02-24T10:27:09.260Z,86605.13
2023-02-24T10:29:51.562Z,86606.59
2023-02-24T10:32:31.840Z,86605.09
2023-02-24T10:35:00.741Z,86599.47
2023-02-24T10:37:29.669Z,86594.97
2023-02-24T10:40:02.468Z,86596.09
2023-02-24T10:42:32.718Z,86582.97
2023-02-24T10:45:17.573Z,86575.84
2023-02-24T10:47:53.847Z,86585.97
2023-02-24T10:50:34.922Z,86575.09
2023-02-24T10:53:18.293Z,86576.22
2023-02-24T10:55:48.857Z,86571.72
2023-02-24T10:58:31.084Z,86570.59
2023-02-24T11:01:24.377Z,86573.25
2023-02-24T11:03:55.728Z,86559.72
2023-02-24T11:06:26.108Z,86558.25
2023-02-24T11:08:59.263Z,86557.13
2023-02-24T11:11:35.287Z,86552.63
2023-02-24T11:14:03.719Z,86545.88
2023-02-24T11:16:53.123Z,86541.75
2023-02-24T11:19:21.114Z,86532.41
2023-02-24T11:21:48.414Z,86531.63
2023-02-24T11:24:19.419Z,86521.91
2023-02-24T11:26:46.981Z,86530.88
2023-02-24T11:29:54.686Z,86525.63
2023-02-24T11:32:52.710Z,86521.88
2023-02-24T11:35:55.094Z,86522.22
2023-02-24T11:39:15.307Z,86512.09
2023-02-24T11:41:52.590Z,86517.38
2023-02-24T11:44:38.411Z,86508.72
2023-02-24T11:47:17.310Z,86512.84
2023-02-24T11:50:07.999Z,86510.19
2023-02-24T11:52:43.457Z,86501.91
2023-02-24T11:55:41.224Z,86495.19
2023-02-24T11:58:40.609Z,86492.56
2023-02-24T12:04:06.283Z,86485.00
2023-02-24T12:07:23.523Z,86481.53
2023-02-24T12:10:16.076Z,86469.84
2023-02-24T12:16:49.378Z,86468.22
2023-02-24T12:19:41.353Z,86473.81
2023-02-24T12:26:33.132Z,86450.81
2023-02-24T12:29:37.335Z,86460.88
2023-02-24T12:32:19.344Z,86453.59
2023-02-24T12:35:11.362Z,86452.81
2023-02-24T12:38:10.516Z,86447.50
2023-02-24T12:41:30.626Z,86450.75
2023-02-24T12:44:22.073Z,86442.69
2023-02-24T12:47:40.568Z,86438.31
2023-02-24T12:50:42.310Z,86425.59
2023-02-24T12:53:36.898Z,86432.72
2023-02-24T12:56:41.785Z,86430.03
2023-02-24T12:59:17.590Z,86426.63
2023-02-24T13:01:58.993Z,86424.47
2023-02-24T13:05:03.235Z,86413.19
2023-02-24T13:07:39.475Z,86425.28
2023-02-24T13:10:41.690Z,86408.72
2023-02-24T13:13:36.527Z,86412.78
2023-02-24T13:16:04.242Z,86414.19
2023-02-24T13:18:35.949Z,86405.94
2023-02-24T13:21:07.980Z,86403.34
2023-02-24T13:23:37.434Z,86400.34
2023-02-24T13:26:05.091Z,86395.41
2023-02-24T13:28:36.101Z,86396.16
2023-02-24T13:31:11.456Z,86395.13
2023-02-24T13:33:44.944Z,86388.78
2023-02-24T13:36:24.588Z,86379.13
2023-02-24T13:39:08.480Z,86388.47
2023-02-24T13:41:40.327Z,86375.72
2023-02-24T13:44:20.070Z,86375.44
2023-02-24T13:47:48.962Z,86375.13
2023-02-24T13:50:25.491Z,86362.41
2023-02-24T13:53:34.465Z,86365.06
2023-02-24T13:56:21.825Z,86353.09
2023-02-24T13:59:13.886Z,86350.16
2023-02-24T14:02:16.531Z,86351.84
2023-02-24T14:04:57.509Z,86351.91
2023-02-24T14:07:32.249Z,86346.72
2023-02-24T14:10:05.578Z,86344.41
2023-02-24T14:12:35.790Z,86343.69
2023-02-24T14:15:05.462Z,86339.84
2023-02-24T14:17:37.243Z,86342.78
2023-02-24T14:20:09.934Z,86335.94
2023-02-24T14:22:49.517Z,86339.34
2023-02-24T14:25:17.425Z,86326.53
2023-02-24T14:27:48.681Z,86320.19
2023-02-24T14:30:35.568Z,86323.13
2023-02-24T14:33:05.494Z,86322.34
2023-02-24T14:35:48.484Z,86314.47
2023-02-24T14:38:39.531Z,86319.03
2023-02-24T14:41:21.020Z,86316.84
2023-02-24T14:43:48.533Z,86308.97
2023-02-24T14:46:15.943Z,86308.25
2023-02-24T14:48:44.812Z,86311.66
2023-02-24T14:51:34.955Z,86300.41
2023-02-24T14:54:08.793Z,86300.06
2023-02-24T14:56:37.088Z,86293.34
2023-02-24T14:59:21.659Z,86287.75
2023-02-24T15:01:53.946Z,86288.13
2023-02-24T15:04:42.861Z,86282.53
2023-02-24T15:07:25.122Z,86292.44
2023-02-24T15:09:53.931Z,86277.81
2023-02-24T15:16:20.795Z,86272.63
2023-02-24T15:19:01.045Z,86269.56
2023-02-24T15:21:33.443Z,86268.06
2023-02-24T15:24:05.130Z,86270.34
2023-02-24T15:26:35.449Z,86260.63
2023-02-24T15:29:23.457Z,86266.69
2023-02-24T15:31:51.300Z,86262.94
2023-02-24T15:34:28.944Z,86260.38
2023-02-24T15:37:12.901Z,86258.19
2023-02-24T15:39:44.254Z,86259.28
2023-02-24T15:42:30.630Z,86254.47
2023-02-24T15:45:36.122Z,86257.16
2023-02-24T15:48:21.138Z,86253.75
2023-02-24T15:50:49.144Z,86252.25
2023-02-24T15:53:17.475Z,86247.78
2023-02-24T15:55:45.224Z,86244.78
2023-02-24T15:58:20.256Z,86248.91
2023-02-24T16:00:47.672Z,86238.41
2023-02-24T16:03:14.883Z,86239.56
2023-02-24T16:05:42.177Z,86243.34
2023-02-24T16:08:18.659Z,86230.59
2023-02-24T16:10:46.562Z,86230.97
2023-02-24T16:13:24.317Z,86226.44
2023-02-24T16:15:52.401Z,86226.09
2023-02-24T16:22:26.447Z,86218.75
2023-02-24T16:24:53.833Z,86223.28
2023-02-24T16:27:24.130Z,86221.44
2023-02-24T16:29:51.409Z,86215.41
2023-02-24T16:32:19.365Z,86215.41
2023-02-24T16:34:46.727Z,86222.53
2023-02-24T16:41:21.017Z,86221.41
2023-02-24T16:43:48.220Z,86219.91
2023-02-24T16:46:22.490Z,86228.50
2023-02-24T16:48:52.384Z,86233.00
2023-02-24T16:51:20.475Z,86230.03
2023-02-24T16:53:48.005Z,86226.69
2023-02-24T16:56:15.307Z,86224.41
2023-02-24T16:58:42.926Z,86227.78
2023-02-24T17:01:20.318Z,86232.28
2023-02-24T17:03:52.496Z,86232.66
2023-02-24T17:06:22.345Z,86233.06
2023-02-24T17:08:50.607Z,86231.22
2023-02-24T17:11:21.460Z,86231.97
2023-02-24T17:13:48.640Z,86229.72
2023-02-24T17:16:16.306Z,86238.31
2023-02-24T17:18:43.539Z,86232.72
2023-02-24T17:21:14.576Z,86234.97
2023-02-24T17:23:42.973Z,86238.75
2023-02-24T17:26:16.315Z,86240.59
2023-02-24T17:28:44.247Z,86239.47
2023-02-24T17:31:11.831Z,86240.25
2023-02-24T17:33:39.189Z,86238.38
2023-02-24T17:40:08.889Z,86237.28
2023-02-24T17:42:36.453Z,86241.00
2023-02-24T17:45:05.260Z,86238.03
2023-02-24T17:47:34.384Z,86235.41
2023-02-24T17:50:05.587Z,86231.25
2023-02-24T17:52:33.151Z,86235.78
2023-02-24T17:55:00.435Z,86234.66
2023-02-24T18:01:28.110Z,86228.31
2023-02-24T18:03:56.140Z,86224.94
2023-02-24T18:06:25.205Z,86226.81
2023-02-24T18:08:52.810Z,86231.69
2023-02-24T18:11:20.755Z,86229.81
2023-02-24T18:13:48.092Z,86224.59
2023-02-24T18:20:21.959Z,86220.09
2023-02-24T18:22:49.299Z,86214.13
2023-02-24T18:25:16.754Z,86214.47
2023-02-24T18:27:44.019Z,86211.84
2023-02-24T18:30:12.350Z,86215.63
2023-02-24T18:32:39.697Z,86217.88
2023-02-24T18:35:07.606Z,86217.13
2023-02-24T18:37:34.801Z,86213.75
2023-02-24T18:40:02.447Z,86208.13
2023-02-24T18:42:30.064Z,86197.69
2023-02-24T18:44:57.359Z,86204.41
2023-02-24T18:47:25.289Z,86204.44
2023-02-24T18:49:52.805Z,86204.03
2023-02-24T18:52:20.145Z,86205.19
2023-02-24T18:54:47.440Z,86205.91
2023-02-24T18:57:14.754Z,86202.97
2023-02-24T18:59:42.986Z,86202.22
2023-02-24T19:02:14.711Z,86205.59
2023-02-24T19:04:46.182Z,86202.94
2023-02-24T19:07:14.465Z,86194.72
2023-02-24T19:09:42.053Z,86197.72
2023-02-24T19:12:09.501Z,86197.34
2023-02-24T19:14:36.741Z,86191.75
2023-02-24T19:17:04.062Z,86183.53
2023-02-24T19:19:31.396Z,86190.25
2023-02-24T19:21:59.040Z,86176.81
2023-02-24T19:24:26.504Z,86168.59
2023-02-24T19:26:54.396Z,86178.31
2023-02-24T19:29:22.138Z,86169.72
2023-02-24T19:31:50.263Z,86155.13
2023-02-24T19:34:18.156Z,86167.09
2023-02-24T19:36:45.842Z,86158.13
2023-02-24T19:39:16.604Z,86148.41
2023-02-24T19:41:44.568Z,86151.00
2023-02-24T19:44:12.204Z,86149.88
2023-02-24T19:46:40.719Z,86154.38
2023-02-24T19:49:07.989Z,86155.13
2023-02-24T19:51:35.702Z,86151.38
2023-02-24T19:54:04.756Z,86146.88
2023-02-24T19:56:36.746Z,86152.84
2023-02-24T19:59:07.529Z,86148.34
2023-02-24T20:01:34.922Z,86141.66
2023-02-24T20:04:04.229Z,86137.16
2023-02-24T20:06:41.456Z,86146.50
2023-02-24T20:09:14.208Z,86141.25
2023-02-24T20:11:43.626Z,86139.03
2023-02-24T20:14:12.816Z,86141.25
2023-02-24T20:16:42.160Z,86146.09
2023-02-24T20:19:12.556Z,86145.75
2023-02-24T20:21:40.513Z,86140.88
2023-02-24T20:24:13.967Z,86130.44
2023-02-24T20:26:45.238Z,86139.41
2023-02-24T20:29:13.279Z,86132.69
2023-02-24T20:31:41.613Z,86130.06
2023-02-24T20:34:09.576Z,86133.03
2023-02-24T20:36:37.428Z,86133.41
2023-02-24T20:39:05.014Z,86143.16
2023-02-24T20:41:32.737Z,86134.16
2023-02-24T20:44:33.112Z,86130.44
2023-02-24T20:47:00.353Z,86124.84
2023-02-24T20:49:27.649Z,86130.81
2023-02-24T20:56:08.812Z,86131.19
2023-02-24T20:58:36.192Z,86126.34
2023-02-24T21:01:03.455Z,86121.81
2023-02-24T21:03:42.631Z,86109.88
2023-02-24T21:06:15.376Z,86109.88
2023-02-24T21:08:43.324Z,86110.97
2023-02-24T21:11:13.217Z,86103.13
2023-02-24T21:13:44.276Z,86099.00
2023-02-24T21:16:14.639Z,86102.75
2023-02-24T21:18:45.475Z,86099.00
2023-02-24T21:21:13.825Z,86093.03
2023-02-24T21:23:42.626Z,86088.53
2023-02-24T21:26:11.504Z,86085.56
2023-02-24T21:28:40.083Z,86085.56
2023-02-24T21:31:14.175Z,86068.34
2023-02-24T21:33:41.854Z,86063.13
2023-02-24T21:36:14.961Z,86069.50
2023-02-24T21:38:42.866Z,86073.25
2023-02-24T21:41:15.842Z,86063.50
2023-02-24T21:43:43.784Z,86060.88
2023-02-24T21:46:12.969Z,86065.38
2023-02-24T21:48:40.297Z,86066.50
2023-02-24T21:51:10.410Z,86063.88
2023-02-24T21:53:39.741Z,86057.91
2023-02-24T21:56:17.760Z,86058.25
2023-02-24T21:58:56.262Z,86059.41
2023-02-24T22:01:29.083Z,86054.16
2023-02-24T22:03:59.179Z,86041.47
2023-02-24T22:06:31.452Z,86041.06
2023-02-24T22:09:01.389Z,86036.22
2023-02-24T22:15:28.477Z,86031.00
2023-02-24T22:17:56.363Z,86037.75
2023-02-24T22:20:24.205Z,86037.34
2023-02-24T22:22:51.488Z,86031.72
2023-02-24T22:25:18.783Z,86029.47
2023-02-24T22:27:46.030Z,86026.50
2023-02-24T22:30:13.594Z,86026.50
2023-02-24T22:32:40.920Z,86027.25
2023-02-24T22:35:08.598Z,86023.88
2023-02-24T22:37:35.833Z,86012.28
2023-02-24T22:40:03.146Z,86021.63
2023-02-24T22:42:30.328Z,86020.88
2023-02-24T22:44:57.536Z,86007.81
2023-02-24T22:47:24.759Z,86017.88
2023-02-24T22:49:51.951Z,86014.16
2023-02-24T22:52:19.147Z,86004.78
2023-02-24T22:54:46.393Z,86007.41
2023-02-24T22:57:13.560Z,85995.81
2023-02-24T22:59:40.842Z,85995.06
2023-02-24T23:02:08.283Z,85990.19
2023-02-24T23:04:36.412Z,86005.56
2023-02-24T23:07:04.277Z,86000.31
2023-02-24T23:09:31.586Z,86000.31
2023-02-24T23:11:58.865Z,85995.09
2023-02-24T23:14:26.044Z,85992.84
2023-02-24T23:16:54.655Z,85998.47
2023-02-24T23:19:22.580Z,85988.00
2023-02-24T23:21:53.623Z,85983.13
2023-02-24T23:24:21.851Z,85978.66
2023-02-24T23:34:54.583Z,85966.41
2023-02-24T23:37:21.917Z,85962.63
2023-02-24T23:48:11.020Z,85964.16
2023-02-24T23:50:40.297Z,85958.56
2023-02-24T23:53:07.894Z,85952.94
2023-02-24T23:55:38.355Z,85948.47
2023-02-24T23:58:05.967Z,85955.97
